Time;durP1;ratioP1;P1;durP2;ratioP2;P2;SDS_P1;SDS_P2;PMS_P1;PMS_P2;Temp;Humidity;BMP_temperature;BMP_pressure;BME280_temperature;BME280_humidity;BME280_pressure;Samples;Min_cycle;Max_cycle;Signal;HPM_P1;HPM_P2
2023/08/18 00:00:11;;;;;;;;;5.50;5.50;;;;;25.60;40.58;99048.63;5077105;28;45339;-64
2023/08/18 00:02:38;;;;;;;;;8.25;8.25;;;;;25.52;40.90;99046.72;5077809;28;45310;-63
2023/08/18 00:05:04;;;;;;;;;9.50;7.50;;;;;25.47;40.85;99049.03;5077617;28;45483;-63
2023/08/18 00:07:30;;;;;;;;;8.00;7.50;;;;;25.41;41.14;99044.28;5077333;27;46596;-64
2023/08/18 00:09:55;;;;;;;;;7.25;7.25;;;;;25.36;41.56;99043.91;5077593;28;45352;-63
2023/08/18 00:12:20;;;;;;;;;9.50;9.50;;;;;25.31;41.82;99040.81;5077802;28;45458;-63
2023/08/18 00:14:46;;;;;;;;;10.00;9.00;;;;;25.25;42.19;99041.47;5077473;28;45519;-64
2023/08/18 00:17:11;;;;;;;;;12.75;10.00;;;;;25.18;42.21;99048.47;5076966;28;45475;-63
2023/08/18 00:19:36;;;;;;;;;8.75;8.75;;;;;25.15;42.57;99046.06;5077403;28;45443;-64
2023/08/18 00:22:02;;;;;;;;;10.00;10.00;;;;;25.12;42.23;99038.31;5077421;28;45479;-63
2023/08/18 00:24:28;;;;;;;;;10.00;10.00;;;;;25.11;42.57;99044.72;5077197;28;45467;-63
2023/08/18 00:26:53;;;;;;;;;9.75;9.75;;;;;25.11;42.30;99047.41;5076836;28;46317;-63
2023/08/18 00:29:18;;;;;;;;;8.75;8.75;;;;;25.09;42.76;99047.56;5077227;28;45449;-63
2023/08/18 00:31:44;;;;;;;;;10.75;10.75;;;;;25.09;42.67;99052.13;5076377;28;45438;-63
2023/08/18 00:34:09;;;;;;;;;8.75;8.75;;;;;25.10;42.82;99059.22;5076409;28;45226;-63
2023/08/18 00:36:34;;;;;;;;;11.75;9.25;;;;;25.09;43.08;99054.81;5076627;28;45447;-64
2023/08/18 00:39:01;;;;;;;;;10.00;9.00;;;;;25.04;43.55;99044.47;5077099;28;45405;-63
2023/08/18 00:41:26;;;;;;;;;8.00;7.00;;;;;24.98;43.44;99045.94;5077403;28;45357;-63
2023/08/18 00:43:52;;;;;;;;;9.25;9.25;;;;;24.95;43.64;99053.50;5077103;28;45360;-63
2023/08/18 00:46:19;;;;;;;;;10.50;10.50;;;;;24.88;43.78;99044.28;5076570;28;46169;-63
2023/08/18 00:48:44;;;;;;;;;10.25;10.25;;;;;24.79;43.99;99054.16;5077063;28;45432;-63
2023/08/18 00:51:11;;;;;;;;;8.50;8.50;;;;;24.72;44.23;99052.22;5077235;27;45463;-63
2023/08/18 00:53:40;;;;;;;;;11.75;8.25;;;;;24.66;44.40;99049.13;5076699;28;45393;-63
2023/08/18 00:56:07;;;;;;;;;10.00;8.25;;;;;24.60;44.74;99051.59;5075000;28;47185;-63
2023/08/18 00:58:33;;;;;;;;;8.00;8.00;;;;;24.55;44.43;99057.44;5076426;28;45379;-63
2023/08/18 01:00:59;;;;;;;;;9.50;9.25;;;;;24.53;44.61;99050.50;5076180;28;45400;-63
2023/08/18 01:03:25;;;;;;;;;11.25;9.25;;;;;24.51;44.64;99047.09;5076537;28;45571;-64
2023/08/18 01:05:50;;;;;;;;;11.25;9.00;;;;;24.51;44.62;99056.03;5076618;28;45614;-63
2023/08/18 01:08:16;;;;;;;;;7.75;7.50;;;;;24.52;44.66;99052.34;5076711;28;45411;-63
2023/08/18 01:11:09;;;;;;;;;7.75;7.00;;;;;24.53;44.77;99050.50;5074920;28;45424;-64
2023/08/18 01:13:53;;;;;;;;;6.00;6.00;;;;;24.54;44.85;99047.66;5075933;28;45467;-64
2023/08/18 01:16:25;;;;;;;;;9.00;8.00;;;;;24.53;44.90;99045.97;5075918;28;45472;-63
2023/08/18 01:18:51;;;;;;;;;12.00;8.50;;;;;24.48;45.11;99034.78;5076532;28;45301;-63
2023/08/18 01:21:18;;;;;;;;;10.25;8.25;;;;;24.45;45.19;99040.50;5076362;28;45386;-63
2023/08/18 01:23:44;;;;;;;;;10.00;8.25;;;;;24.41;44.66;99044.47;5076663;28;45378;-63
2023/08/18 01:26:09;;;;;;;;;7.25;7.00;;;;;24.37;44.96;99040.38;5076399;28;46081;-63
2023/08/18 01:28:35;;;;;;;;;10.00;9.00;;;;;24.36;44.94;99038.69;5076446;28;45530;-63
2023/08/18 01:31:08;;;;;;;;;7.50;7.50;;;;;24.33;45.24;99038.97;5076142;28;45409;-63
2023/08/18 01:33:48;;;;;;;;;9.00;8.50;;;;;24.32;45.16;99046.22;5076325;28;45362;-64
2023/08/18 01:36:17;;;;;;;;;12.00;9.25;;;;;24.26;45.48;99041.44;5075741;28;45409;-63
2023/08/18 01:38:46;;;;;;;;;9.00;8.25;;;;;24.17;45.45;99042.28;5074411;28;45524;-63
2023/08/18 01:41:12;;;;;;;;;9.50;8.75;;;;;24.12;45.55;99038.38;5074920;27;45358;-64
2023/08/18 01:43:38;;;;;;;;;8.50;8.50;;;;;24.07;45.60;99036.13;5075172;28;45582;-64
2023/08/18 01:46:03;;;;;;;;;8.25;8.00;;;;;24.02;46.38;99041.09;5075165;28;45389;-64
2023/08/18 01:48:29;;;;;;;;;8.75;7.75;;;;;23.96;46.01;99039.84;5075409;28;45380;-64
2023/08/18 01:50:54;;;;;;;;;9.00;9.00;;;;;23.93;46.34;99033.91;5076176;28;45381;-63
2023/08/18 01:53:20;;;;;;;;;9.75;8.75;;;;;23.93;46.09;99028.53;5076016;28;45360;-63
2023/08/18 01:55:45;;;;;;;;;9.75;9.00;;;;;23.93;46.17;99039.31;5075398;28;45360;-63
2023/08/18 01:58:10;;;;;;;;;11.75;10.25;;;;;23.95;45.75;99040.00;5075214;28;45372;-63
2023/08/18 02:00:36;;;;;;;;;10.25;9.75;;;;;23.96;46.08;99034.44;5073681;28;45432;-63
2023/08/18 02:03:01;;;;;;;;;10.75;8.00;;;;;23.98;46.33;99043.22;5075401;28;45403;-63
2023/08/18 02:05:26;;;;;;;;;10.25;9.75;;;;;23.99;46.00;99041.38;5075381;28;46495;-63
2023/08/18 02:07:53;;;;;;;;;12.00;11.75;;;;;24.01;46.22;99034.00;5075489;28;45372;-63
2023/08/18 02:10:19;;;;;;;;;11.75;9.50;;;;;24.01;46.13;99037.56;5075632;28;45319;-63
2023/08/18 02:12:44;;;;;;;;;8.00;8.00;;;;;24.03;46.21;99034.72;5075634;28;45362;-63
2023/08/18 02:15:10;;;;;;;;;9.00;9.00;;;;;24.04;46.32;99036.41;5075274;28;46617;-63
2023/08/18 02:17:35;;;;;;;;;9.50;8.50;;;;;24.05;46.34;99037.25;5075651;28;45431;-64
2023/08/18 02:20:00;;;;;;;;;7.50;7.50;;;;;24.06;46.42;99044.34;5075409;28;45379;-63
2023/08/18 02:22:26;;;;;;;;;8.75;8.00;;;;;24.07;46.95;99040.66;5074937;28;45354;-63
2023/08/18 02:24:52;;;;;;;;;10.00;9.25;;;;;24.08;46.41;99047.75;5074660;28;45427;-63
2023/08/18 02:27:18;;;;;;;;;9.00;9.00;;;;;24.09;46.38;99049.44;5075220;28;45517;-63
2023/08/18 02:29:43;;;;;;;;;9.00;9.00;;;;;24.09;46.71;99052.13;5075357;28;45528;-64
2023/08/18 02:32:09;;;;;;;;;11.25;9.50;;;;;24.08;46.84;99043.22;5074925;28;45459;-63
2023/08/18 02:34:35;;;;;;;;;9.00;8.75;;;;;24.11;46.95;99055.53;5074916;28;46188;-63
2023/08/18 02:37:01;;;;;;;;;8.50;7.75;;;;;24.10;46.57;99048.44;5075028;28;45431;-63
2023/08/18 02:39:26;;;;;;;;;13.50;11.00;;;;;24.10;46.44;99046.59;5075282;28;45428;-64
2023/08/18 02:41:52;;;;;;;;;10.00;10.00;;;;;24.10;46.35;99053.84;5075303;28;45377;-63
2023/08/18 02:44:18;;;;;;;;;7.25;7.25;;;;;24.10;46.33;99056.53;5075171;28;46161;-63
2023/08/18 02:46:43;;;;;;;;;8.75;8.75;;;;;24.09;46.21;99061.06;5074324;28;45445;-64
2023/08/18 02:49:08;;;;;;;;;11.25;8.75;;;;;24.10;46.29;99064.59;5075018;28;46093;-64
2023/08/18 02:51:34;;;;;;;;;9.00;9.00;;;;;24.08;45.92;99061.22;5074574;28;45605;-63
2023/08/18 02:53:59;;;;;;;;;8.00;8.00;;;;;24.07;46.52;99071.13;5076578;28;45660;-64
2023/08/18 02:56:26;;;;;;;;;10.50;10.50;;;;;24.06;46.50;99068.59;5081751;28;45558;-64
2023/08/18 02:58:51;;;;;;;;;8.00;8.00;;;;;24.04;46.35;99067.88;5081821;28;45413;-63
2023/08/18 03:01:17;;;;;;;;;11.25;10.00;;;;;24.04;46.72;99070.56;5081347;28;45502;-63
2023/08/18 03:03:42;;;;;;;;;11.00;9.00;;;;;24.01;46.68;99067.19;5081713;27;45966;-63
2023/08/18 03:06:08;;;;;;;;;8.75;8.00;;;;;23.99;46.85;99065.63;5081436;28;45468;-63
2023/08/18 03:08:36;;;;;;;;;10.00;10.00;;;;;23.97;46.70;99060.38;5081645;27;45427;-63
2023/08/18 03:11:01;;;;;;;;;10.00;9.50;;;;;23.95;47.06;99061.56;5097148;27;45332;-64
2023/08/18 03:13:27;;;;;;;;;10.75;9.00;;;;;23.92;47.48;99057.31;5081156;28;46134;-63
2023/08/18 03:15:53;;;;;;;;;10.50;9.75;;;;;23.88;47.31;99061.28;5081167;28;45414;-63
2023/08/18 03:18:19;;;;;;;;;10.25;9.75;;;;;23.85;47.61;99064.25;5081664;28;45364;-64
2023/08/18 03:20:48;;;;;;;;;10.00;9.50;;;;;23.83;48.04;99062.72;5081547;28;45581;-64
2023/08/18 03:23:14;;;;;;;;;12.50;10.00;;;;;23.80;47.71;99069.22;5081097;28;45465;-63
2023/08/18 03:25:40;;;;;;;;;11.40;10.00;;;;;23.78;47.65;99065.00;5081283;28;45434;-63
2023/08/18 03:28:05;;;;;;;;;8.00;8.00;;;;;23.77;47.75;99066.84;5081737;28;45377;-63
2023/08/18 03:30:31;;;;;;;;;10.25;10.25;;;;;23.76;48.18;99072.38;5080980;28;45550;-63
2023/08/18 03:32:57;;;;;;;;;7.75;7.75;;;;;23.74;47.95;99074.38;5080872;28;46410;-64
2023/08/18 03:35:22;;;;;;;;;10.00;8.25;;;;;23.72;47.82;99066.44;5080670;28;45335;-63
2023/08/18 03:37:48;;;;;;;;;10.00;10.00;;;;;23.70;48.10;99071.13;5080890;28;45448;-64
2023/08/18 03:40:14;;;;;;;;;11.00;11.00;;;;;23.68;48.27;99067.72;5080735;28;45281;-63
2023/08/18 03:42:39;;;;;;;;;11.25;10.75;;;;;23.65;48.49;99071.53;5081045;28;45448;-63
2023/08/18 03:45:05;;;;;;;;;9.00;9.00;;;;;23.61;48.09;99070.16;5080666;28;45456;-63
2023/08/18 03:47:31;;;;;;;;;12.00;11.00;;;;;23.57;48.66;99067.91;5081098;28;45395;-63
2023/08/18 03:49:56;;;;;;;;;12.75;12.75;;;;;23.53;48.82;99070.03;5081005;28;45541;-63
2023/08/18 03:52:21;;;;;;;;;9.00;9.00;;;;;23.50;48.75;99072.09;5081016;28;45395;-63
2023/08/18 03:54:47;;;;;;;;;11.75;11.75;;;;;23.47;48.79;99070.56;5081074;28;45578;-64
2023/08/18 03:57:12;;;;;;;;;14.00;12.00;;;;;23.43;49.11;99074.53;5080969;28;45387;-63
2023/08/18 03:59:37;;;;;;;;;11.00;10.00;;;;;23.41;48.90;99073.00;5080979;28;45537;-63
2023/08/18 04:02:03;;;;;;;;;13.50;11.50;;;;;23.38;49.02;99074.13;5080468;28;45502;-64
2023/08/18 04:04:28;;;;;;;;;11.25;11.25;;;;;23.37;49.26;99076.94;5080918;28;45467;-64
2023/08/18 04:06:53;;;;;;;;;12.50;12.50;;;;;23.34;48.91;99070.00;5077396;28;45363;-63
2023/08/18 04:09:19;;;;;;;;;11.25;11.00;;;;;23.33;49.55;99073.69;5077408;28;45486;-63
2023/08/18 04:11:45;;;;;;;;;10.50;9.75;;;;;23.31;49.49;99073.84;5075923;27;45499;-63
2023/08/18 04:14:11;;;;;;;;;12.00;12.00;;;;;23.29;49.37;99066.91;5076294;28;45357;-63
2023/08/18 04:16:37;;;;;;;;;10.75;10.50;;;;;23.25;49.96;99082.50;5076421;28;45393;-64
2023/08/18 04:19:03;;;;;;;;;10.75;10.75;;;;;23.24;49.80;99086.16;5076874;28;45566;-64
2023/08/18 04:21:30;;;;;;;;;12.75;10.50;;;;;23.24;49.78;99088.00;5076360;28;45715;-63
2023/08/18 04:23:55;;;;;;;;;11.75;11.25;;;;;23.23;49.40;99084.47;5076506;27;45484;-63
2023/08/18 04:26:21;;;;;;;;;12.25;11.50;;;;;23.24;48.84;99082.63;5076927;28;45432;-62
2023/08/18 04:28:46;;;;;;;;;10.50;9.75;;;;;23.22;49.07;99085.47;5074544;27;45526;-64
2023/08/18 04:31:12;;;;;;;;;13.00;11.25;;;;;23.23;48.91;99086.31;5074523;28;45441;-63
2023/08/18 04:33:38;;;;;;;;;12.00;11.00;;;;;23.25;48.79;99093.25;5073480;28;45458;-64
2023/08/18 04:36:04;;;;;;;;;11.50;11.00;;;;;23.25;49.04;99089.72;5075918;28;45419;-63
2023/08/18 04:38:29;;;;;;;;;12.00;10.50;;;;;23.25;48.94;99093.25;5074826;28;45421;-63
2023/08/18 04:41:02;;;;;;;;;15.00;12.00;;;;;23.24;49.81;99096.94;5075883;28;45383;-64
2023/08/18 04:43:30;;;;;;;;;14.75;12.75;;;;;23.23;49.78;99097.06;5075910;28;45403;-63
2023/08/18 04:45:56;;;;;;;;;11.75;10.00;;;;;23.22;49.35;99104.28;5075678;28;45480;-63
2023/08/18 04:48:23;;;;;;;;;13.50;12.75;;;;;23.21;49.99;99110.66;5076036;28;45475;-63
2023/08/18 04:50:48;;;;;;;;;17.00;13.75;;;;;23.21;50.63;99112.50;5075986;28;45514;-63
2023/08/18 04:53:14;;;;;;;;;15.00;14.75;;;;;23.19;50.50;99109.94;5076497;27;45433;-64
2023/08/18 04:55:41;;;;;;;;;15.75;15.75;;;;;23.17;50.34;99117.31;5076742;28;45440;-63
2023/08/18 04:58:09;;;;;;;;;12.50;12.00;;;;;23.15;50.81;99118.44;5076768;28;45407;-63
2023/08/18 05:00:34;;;;;;;;;13.75;12.50;;;;;23.09;50.61;99119.88;5075877;28;45422;-63
2023/08/18 05:03:00;;;;;;;;;14.75;12.00;;;;;23.05;50.46;99115.75;5076444;28;45359;-63
2023/08/18 05:05:25;;;;;;;;;11.00;10.25;;;;;23.03;50.76;99117.72;5076649;28;45847;-63
2023/08/18 05:07:51;;;;;;;;;12.00;10.00;;;;;23.00;50.74;99120.69;5076466;27;45518;-63
2023/08/18 05:10:16;;;;;;;;;11.75;11.00;;;;;22.96;51.07;99117.44;5076207;28;45544;-63
2023/08/18 05:12:41;;;;;;;;;10.25;10.25;;;;;22.93;51.40;99125.78;5076077;28;45385;-64
2023/08/18 05:15:07;;;;;;;;;13.75;9.75;;;;;22.90;51.02;99128.75;5075655;28;45378;-64
2023/08/18 05:17:33;;;;;;;;;11.50;9.50;;;;;22.88;51.16;99119.97;5074842;27;45624;-63
2023/08/18 05:19:59;;;;;;;;;11.25;10.00;;;;;22.85;51.59;99122.94;5075978;28;45401;-64
2023/08/18 05:22:24;;;;;;;;;12.75;12.50;;;;;22.86;51.36;99119.25;5075684;28;45323;-64
2023/08/18 05:24:50;;;;;;;;;11.50;10.50;;;;;22.85;51.56;99131.00;5075988;28;45363;-63
2023/08/18 05:27:16;;;;;;;;;11.75;10.00;;;;;22.88;50.89;99124.50;5074542;27;45535;-63
2023/08/18 05:29:43;;;;;;;;;11.00;9.50;;;;;22.89;51.20;99129.75;5054225;28;45485;-63
2023/08/18 05:32:08;;;;;;;;;9.25;9.25;;;;;22.90;51.36;99122.53;5055442;28;45561;-63
2023/08/18 05:34:33;;;;;;;;;10.50;10.00;;;;;22.92;51.61;99128.63;5059617;28;45431;-63
2023/08/18 05:36:59;;;;;;;;;11.00;11.00;;;;;22.93;51.15;99128.50;5074051;28;45661;-64
2023/08/18 05:39:24;;;;;;;;;7.00;6.00;;;;;22.95;51.03;99126.50;5075010;28;45674;-63
2023/08/18 05:41:50;;;;;;;;;12.50;11.50;;;;;23.00;51.15;99133.28;5075776;28;45360;-64
2023/08/18 05:44:15;;;;;;;;;9.25;9.25;;;;;23.02;51.00;99126.78;5076165;28;45403;-63
2023/08/18 05:46:41;;;;;;;;;11.75;11.50;;;;;23.06;50.74;99132.75;5073508;28;45352;-63
2023/08/18 05:49:07;;;;;;;;;10.50;10.50;;;;;23.09;50.52;99125.25;5075494;28;46076;-63
2023/08/18 05:51:32;;;;;;;;;10.50;9.50;;;;;23.15;50.52;99131.88;5075450;28;45362;-63
2023/08/18 05:53:58;;;;;;;;;14.50;12.00;;;;;23.18;50.40;99132.47;5074220;28;45383;-64
2023/08/18 05:56:23;;;;;;;;;12.25;12.00;;;;;23.23;50.60;99130.19;5075405;28;45382;-63
2023/08/18 05:58:48;;;;;;;;;13.00;10.25;;;;;23.27;50.58;99128.94;5075262;28;45692;-63
2023/08/18 06:01:17;;;;;;;;;12.00;12.00;;;;;23.30;50.45;99134.00;5074345;28;45361;-64
2023/08/18 06:03:42;;;;;;;;;10.00;9.25;;;;;23.33;50.38;99133.72;5075483;28;45442;-64
2023/08/18 06:06:08;;;;;;;;;13.25;12.25;;;;;23.39;50.28;99131.47;5074313;28;45423;-63
2023/08/18 06:08:33;;;;;;;;;11.00;11.00;;;;;23.43;50.04;99136.44;5074684;28;46124;-64
2023/08/18 06:10:59;;;;;;;;;11.25;10.75;;;;;23.47;50.25;99136.97;5073569;28;45927;-63
2023/08/18 06:13:24;;;;;;;;;11.00;11.00;;;;;23.49;49.81;99135.84;5074773;27;45453;-63
2023/08/18 06:15:54;;;;;;;;;14.00;12.25;;;;;23.52;49.94;99135.59;5073259;28;45525;-63
2023/08/18 06:18:20;;;;;;;;;12.25;10.00;;;;;23.56;49.99;99138.84;5074991;27;45391;-63
2023/08/18 06:20:46;;;;;;;;;11.60;11.00;;;;;23.58;50.14;99137.72;5075212;28;45449;-64
2023/08/18 06:23:11;;;;;;;;;13.50;11.50;;;;;23.61;49.78;99141.97;5075063;28;45379;-63
2023/08/18 06:25:36;;;;;;;;;9.75;9.00;;;;;23.64;49.95;99138.97;5074843;28;45474;-63
2023/08/18 06:28:02;;;;;;;;;9.75;9.75;;;;;23.68;49.85;99145.78;5072982;28;47659;-63
2023/08/18 06:30:27;;;;;;;;;10.00;9.50;;;;;23.71;49.70;99150.03;5072830;28;45445;-63
2023/08/18 06:32:53;;;;;;;;;10.25;10.00;;;;;23.74;49.69;99141.69;5073455;28;45420;-63
2023/08/18 06:35:18;;;;;;;;;10.75;10.75;;;;;23.79;49.53;99140.25;5071576;28;45643;-63
2023/08/18 06:37:44;;;;;;;;;11.50;10.25;;;;;23.82;49.45;99145.31;5073689;28;45444;-64
2023/08/18 06:40:10;;;;;;;;;11.00;11.00;;;;;23.86;49.03;99141.34;5073812;28;45437;-63
2023/08/18 06:42:35;;;;;;;;;10.25;10.25;;;;;23.89;49.17;99142.91;5073714;28;45443;-63
2023/08/18 06:45:01;;;;;;;;;11.50;11.00;;;;;23.91;49.32;99136.41;5073183;28;45411;-63
2023/08/18 06:47:26;;;;;;;;;13.25;11.50;;;;;23.93;49.47;99137.09;5071934;28;47062;-63
2023/08/18 06:49:51;;;;;;;;;12.50;12.25;;;;;23.97;49.49;99141.19;5073848;28;45406;-63
2023/08/18 06:52:17;;;;;;;;;13.50;12.25;;;;;24.01;49.13;99137.22;5072571;28;45901;-63
2023/08/18 06:54:44;;;;;;;;;12.25;12.00;;;;;24.07;49.02;99134.94;5073861;28;45406;-63
2023/08/18 06:57:10;;;;;;;;;12.25;12.25;;;;;24.11;49.08;99137.19;5073451;28;46265;-63
2023/08/18 06:59:35;;;;;;;;;12.50;10.75;;;;;24.17;48.92;99138.44;5073542;28;45442;-63
2023/08/18 07:02:01;;;;;;;;;14.50;12.00;;;;;24.23;48.57;99129.78;5073292;28;45641;-64
2023/08/18 07:04:26;;;;;;;;;12.50;12.50;;;;;24.29;48.48;99134.63;5073021;28;45375;-63
2023/08/18 07:06:51;;;;;;;;;11.25;10.25;;;;;24.33;48.41;99136.84;5071744;28;45622;-64
2023/08/18 07:09:17;;;;;;;;;12.00;11.75;;;;;24.37;48.25;99137.41;5072484;28;45433;-63
2023/08/18 07:11:42;;;;;;;;;12.00;12.00;;;;;24.41;48.24;99128.03;5073029;28;45418;-63
2023/08/18 07:14:07;;;;;;;;;10.00;9.50;;;;;24.47;47.85;99131.94;5073594;28;45401;-63
2023/08/18 07:16:33;;;;;;;;;13.75;12.00;;;;;24.52;48.05;99130.53;5072777;28;47128;-63
2023/08/18 07:18:58;;;;;;;;;12.75;12.75;;;;;24.59;48.19;99130.78;5071801;28;45420;-64
2023/08/18 07:21:24;;;;;;;;;12.00;11.75;;;;;24.66;47.81;99131.84;5073291;28;45380;-63
2023/08/18 07:23:49;;;;;;;;;9.75;9.75;;;;;24.74;47.37;99136.50;5072115;28;45463;-63
2023/08/18 07:26:16;;;;;;;;;10.00;9.75;;;;;24.81;47.34;99129.50;5073202;28;45846;-63
2023/08/18 07:28:42;;;;;;;;;11.40;10.60;;;;;24.88;47.37;99125.22;5071976;28;45513;-64
2023/08/18 07:31:07;;;;;;;;;13.50;12.00;;;;;24.94;47.17;99128.19;5073224;28;45383;-64
2023/08/18 07:33:34;;;;;;;;;9.75;9.75;;;;;25.01;46.92;99123.00;5071158;27;45390;-64
2023/08/18 07:36:00;;;;;;;;;11.25;10.00;;;;;25.07;46.86;99127.81;5072981;27;45510;-63
2023/08/18 07:38:25;;;;;;;;;9.00;9.00;;;;;25.14;47.27;99128.03;5072959;28;45432;-64
2023/08/18 07:40:52;;;;;;;;;13.25;12.00;;;;;25.20;46.95;99125.56;5073405;28;45668;-63
2023/08/18 07:43:17;;;;;;;;;15.00;13.25;;;;;25.26;46.80;99124.97;5076363;28;45461;-64
2023/08/18 07:45:43;;;;;;;;;13.75;11.75;;;;;25.33;46.48;99122.47;5075499;28;45418;-63
2023/08/18 07:48:08;;;;;;;;;14.25;13.25;;;;;25.37;45.93;99132.81;5076367;28;45468;-63
2023/08/18 07:50:33;;;;;;;;;14.00;13.75;;;;;25.40;45.28;99128.97;5076189;28;45423;-63
2023/08/18 07:52:59;;;;;;;;;11.00;10.25;;;;;25.45;45.75;99125.81;5075898;28;45596;-64
2023/08/18 07:55:24;;;;;;;;;12.00;12.00;;;;;25.51;45.61;99126.00;5074172;28;48411;-64
2023/08/18 07:57:50;;;;;;;;;10.00;10.00;;;;;25.55;45.45;99127.41;5076373;27;45370;-63
2023/08/18 08:00:26;;;;;;;;;11.00;11.00;;;;;25.62;45.51;99131.22;5075865;28;45373;-63
2023/08/18 08:02:52;;;;;;;;;13.50;12.00;;;;;25.69;45.58;99124.16;5076321;27;45318;-64
2023/08/18 08:05:19;;;;;;;;;12.00;11.75;;;;;25.76;45.62;99127.09;5075781;28;46426;-63
2023/08/18 08:07:45;;;;;;;;;11.40;11.40;;;;;25.81;45.52;99127.44;5075958;28;45340;-63
2023/08/18 08:10:10;;;;;;;;;13.75;11.25;;;;;25.89;45.29;99126.66;5091749;27;45300;-63
2023/08/18 08:12:39;;;;;;;;;12.75;12.75;;;;;25.94;45.00;99125.19;5075810;28;45487;-63
2023/08/18 08:15:07;;;;;;;;;13.25;12.25;;;;;26.00;44.79;99118.28;5091202;27;48040;-64
2023/08/18 08:17:33;;;;;;;;;8.20;8.20;;;;;26.05;44.67;99119.53;5075731;28;45448;-64
2023/08/18 08:20:00;;;;;;;;;12.25;7.00;;;;;26.11;44.35;99125.31;5075912;28;45476;-64
2023/08/18 08:22:26;;;;;;;;;13.50;10.25;;;;;26.18;44.10;99126.34;5075906;28;45458;-63
2023/08/18 08:24:54;;;;;;;;;12.50;11.50;;;;;26.24;43.64;99112.19;5075494;28;46154;-63
2023/08/18 08:27:20;;;;;;;;;11.60;10.60;;;;;26.29;43.87;99110.75;5075035;28;45482;-65
2023/08/18 08:29:45;;;;;;;;;12.75;11.00;;;;;26.36;44.05;99105.53;5075267;28;45394;-63
2023/08/18 08:32:11;;;;;;;;;13.25;10.75;;;;;26.42;43.36;99104.88;5075522;28;45412;-63
2023/08/18 08:34:47;;;;;;;;;10.00;9.25;;;;;26.51;42.94;99101.19;5075392;28;45341;-64
2023/08/18 08:37:12;;;;;;;;;9.20;8.80;;;;;26.59;42.99;99092.28;5075433;28;45377;-64
2023/08/18 08:39:37;;;;;;;;;10.50;9.75;;;;;26.68;42.14;99094.81;5075872;28;45721;-64
2023/08/18 08:42:03;;;;;;;;;9.50;9.50;;;;;26.76;42.13;99089.44;5075883;28;45413;-64
2023/08/18 08:44:29;;;;;;;;;12.00;8.75;;;;;26.85;41.97;99092.16;5075360;28;46111;-64
2023/08/18 08:46:55;;;;;;;;;12.75;9.25;;;;;26.91;41.90;99086.94;5074554;28;45444;-64
2023/08/18 08:49:23;;;;;;;;;9.00;9.00;;;;;27.01;41.61;99087.66;5075513;28;45272;-64
2023/08/18 08:51:50;;;;;;;;;11.00;7.75;;;;;27.11;41.27;99087.53;5075304;28;45393;-64
2023/08/18 08:54:18;;;;;;;;;9.50;9.50;;;;;27.22;40.79;99084.47;5075537;28;45461;-64
2023/08/18 08:56:47;;;;;;;;;9.80;9.60;;;;;27.31;40.73;99083.47;5073687;28;45894;-64
2023/08/18 08:59:15;;;;;;;;;11.75;11.25;;;;;27.41;40.77;99075.19;5074730;28;45477;-63
2023/08/18 09:01:41;;;;;;;;;11.50;10.25;;;;;27.50;40.35;99070.59;5073923;28;45455;-65
2023/08/18 09:04:08;;;;;;;;;12.00;12.00;;;;;27.58;41.09;99074.19;5074324;28;46633;-64
2023/08/18 09:06:33;;;;;;;;;10.40;9.20;;;;;27.67;40.87;99069.59;5074537;28;45329;-63
2023/08/18 09:09:00;;;;;;;;;9.25;9.25;;;;;27.74;40.10;99068.75;5090018;27;45576;-64
2023/08/18 09:11:41;;;;;;;;;14.75;13.25;;;;;27.84;40.11;99065.84;5074529;28;46101;-63
2023/08/18 09:14:07;;;;;;;;;9.75;9.00;;;;;27.91;40.03;99063.28;5073795;28;45528;-64
2023/08/18 09:16:33;;;;;;;;;12.50;11.50;;;;;28.00;39.96;99057.66;5073552;28;45350;-63
2023/08/18 09:18:58;;;;;;;;;11.75;10.25;;;;;28.07;39.89;99055.13;5072825;28;45310;-63
2023/08/18 09:21:24;;;;;;;;;11.50;8.75;;;;;28.13;39.58;99057.97;5074506;28;45657;-64
2023/08/18 09:23:56;;;;;;;;;9.75;8.75;;;;;28.20;39.68;99055.44;5074090;28;46464;-63
2023/08/18 09:26:24;;;;;;;;;10.00;8.00;;;;;28.25;39.58;99055.75;5074743;28;45322;-63
2023/08/18 09:28:49;;;;;;;;;8.60;8.60;;;;;28.32;38.91;99053.19;5074729;28;45357;-63
2023/08/18 09:31:14;;;;;;;;;11.50;9.50;;;;;28.41;38.87;99047.56;5074468;28;45534;-64
2023/08/18 09:33:40;;;;;;;;;9.00;7.25;;;;;28.49;38.84;99047.50;5074461;28;45431;-64
2023/08/18 09:36:05;;;;;;;;;9.00;9.00;;;;;28.59;39.38;99049.16;5074500;28;45257;-65
2023/08/18 09:38:44;;;;;;;;;7.00;7.00;;;;;28.68;39.59;99048.06;5072996;27;45448;-64
2023/08/18 09:41:11;;;;;;;;;6.75;6.25;;;;;28.75;40.13;99041.75;5074195;28;45377;-64
2023/08/18 09:43:37;;;;;;;;;11.50;9.00;;;;;28.83;39.97;99044.44;5074237;28;45520;-63
2023/08/18 09:46:04;;;;;;;;;11.80;10.80;;;;;28.91;40.44;99040.84;5073529;28;45425;-63
2023/08/18 09:48:39;;;;;;;;;11.75;10.25;;;;;29.01;39.60;99043.31;5073699;28;45447;-63
2023/08/18 09:51:09;;;;;;;;;8.00;7.00;;;;;29.10;38.98;99036.81;5074144;28;45515;-63
2023/08/18 09:53:39;;;;;;;;;11.50;11.50;;;;;29.17;39.14;99025.00;5074045;28;46042;-62
2023/08/18 09:56:14;;;;;;;;;10.20;9.40;;;;;29.26;38.90;99019.53;5074311;28;45717;-63
2023/08/18 09:58:54;;;;;;;;;11.00;9.75;;;;;29.38;38.64;99018.06;5073684;28;45353;-63
2023/08/18 10:01:21;;;;;;;;;10.25;10.25;;;;;29.48;38.54;99013.25;5071366;28;45518;-64
2023/08/18 10:03:47;;;;;;;;;9.75;9.75;;;;;29.56;37.84;99007.72;5073216;28;46340;-62
2023/08/18 10:06:16;;;;;;;;;10.20;8.60;;;;;29.63;37.68;99016.00;5074083;28;45685;-63
2023/08/18 10:08:42;;;;;;;;;12.00;11.25;;;;;29.70;37.71;99008.75;5074269;28;45434;-64
2023/08/18 10:11:09;;;;;;;;;13.00;12.50;;;;;29.75;37.86;99000.91;5073938;28;45494;-64
2023/08/18 10:13:37;;;;;;;;;16.50;13.00;;;;;29.77;38.38;98999.69;5074055;28;45458;-64
2023/08/18 10:16:04;;;;;;;;;9.60;8.20;;;;;29.82;37.62;98997.28;5073256;28;45317;-64
2023/08/18 10:18:30;;;;;;;;;14.50;12.25;;;;;29.93;37.98;99004.09;5073621;28;45410;-63
2023/08/18 10:20:56;;;;;;;;;7.25;6.75;;;;;30.01;37.71;98995.00;5073951;28;45358;-64
2023/08/18 10:23:30;;;;;;;;;14.50;10.25;;;;;30.08;38.04;98991.38;5073765;28;45522;-64
2023/08/18 10:25:56;;;;;;;;;12.50;12.50;;;;;30.18;37.38;98991.06;5074032;28;45303;-65
2023/08/18 10:28:27;;;;;;;;;11.50;10.75;;;;;30.29;37.82;98987.03;5074297;28;45481;-64
2023/08/18 10:31:05;;;;;;;;;11.25;9.50;;;;;30.38;37.46;98978.56;5073496;28;45352;-63
2023/08/18 10:33:32;;;;;;;;;4.50;4.50;;;;;30.50;38.00;98978.88;5073324;28;45468;-63
2023/08/18 10:36:01;;;;;;;;;10.60;10.00;;;;;30.61;36.92;98983.03;5073175;28;45471;-63
2023/08/18 10:38:30;;;;;;;;;11.75;10.75;;;;;30.70;36.91;98974.53;5073965;28;45405;-63
2023/08/18 10:40:56;;;;;;;;;14.75;13.25;;;;;30.75;36.57;98977.53;5073871;28;45533;-64
2023/08/18 10:43:26;;;;;;;;;11.25;10.50;;;;;30.81;36.07;98971.31;5073587;28;46150;-63
2023/08/18 10:45:58;;;;;;;;;14.75;11.75;;;;;30.90;36.12;98963.84;5073035;28;45337;-63
2023/08/18 10:48:29;;;;;;;;;10.50;9.75;;;;;30.97;35.93;98969.38;5073693;28;45526;-63
2023/08/18 10:50:55;;;;;;;;;8.75;8.75;;;;;31.05;35.44;98961.03;5073669;28;45388;-64
2023/08/18 10:53:20;;;;;;;;;13.50;10.50;;;;;31.09;35.86;98956.91;5073207;28;45514;-63
2023/08/18 10:55:46;;;;;;;;;12.75;10.25;;;;;31.15;35.43;98947.97;5073470;28;45418;-63
2023/08/18 10:58:12;;;;;;;;;11.75;10.25;;;;;31.18;35.39;98951.13;5073461;28;45505;-63
2023/08/18 11:00:39;;;;;;;;;12.50;10.50;;;;;31.27;34.80;98945.56;5071191;28;45453;-63
2023/08/18 11:03:06;;;;;;;;;11.00;11.00;;;;;31.33;35.05;98937.44;5073003;27;45457;-63
2023/08/18 11:05:31;;;;;;;;;9.20;9.20;;;;;31.39;33.94;98946.69;5073297;28;45328;-63
2023/08/18 11:07:58;;;;;;;;;10.75;10.25;;;;;31.40;33.07;98932.84;5073371;28;45309;-64
2023/08/18 11:10:25;;;;;;;;;9.50;8.50;;;;;31.43;33.74;98932.47;5073384;28;45321;-63
2023/08/18 11:12:52;;;;;;;;;10.25;10.25;;;;;31.48;33.09;98934.59;5073267;28;45498;-63
2023/08/18 11:15:22;;;;;;;;;10.40;9.20;;;;;31.51;32.70;98923.28;5074310;28;45487;-64
2023/08/18 11:17:48;;;;;;;;;11.00;9.00;;;;;31.59;32.68;98923.13;5077544;27;45470;-64
2023/08/18 11:20:14;;;;;;;;;9.00;9.00;;;;;31.67;32.69;98923.00;5076954;28;45333;-64